sensor_id;sensor_type;location;lat;lon;timestamp;pressure;altitude;pressure_sealevel;temperature;humidity
78309;BME280;67566;42.022;21.356;2023-03-01T00:00:38;99038.59;;;8.76;75.05
78309;BME280;67566;42.022;21.356;2023-03-01T00:03:03;99044.72;;;8.71;75.16
78309;BME280;67566;42.022;21.356;2023-03-01T00:05:29;99040.53;;;8.65;75.78
78309;BME280;67566;42.022;21.356;2023-03-01T00:07:54;99035.22;;;8.65;75.01
78309;BME280;67566;42.022;21.356;2023-03-01T00:10:20;99041.53;;;8.69;74.46
78309;BME280;67566;42.022;21.356;2023-03-01T00:12:45;99044.19;;;8.69;74.74
78309;BME280;67566;42.022;21.356;2023-03-01T00:15:11;99035.69;;;8.72;74.69
78309;BME280;67566;42.022;21.356;2023-03-01T00:17:37;99035.41;;;8.74;75.62
78309;BME280;67566;42.022;21.356;2023-03-01T00:20:02;99040.38;;;8.80;74.26
78309;BME280;67566;42.022;21.356;2023-03-01T00:22:28;99040.63;;;8.84;74.60
78309;BME280;67566;42.022;21.356;2023-03-01T00:24:54;99036.63;;;8.86;74.39
78309;BME280;67566;42.022;21.356;2023-03-01T00:27:19;99028.91;;;8.90;73.68
78309;BME280;67566;42.022;21.356;2023-03-01T00:29:45;99034.50;;;8.88;73.50
78309;BME280;67566;42.022;21.356;2023-03-01T00:32:10;99033.97;;;8.86;74.33
78309;BME280;67566;42.022;21.356;2023-03-01T00:34:36;99036.41;;;8.83;73.84
78309;BME280;67566;42.022;21.356;2023-03-01T00:37:01;99034.28;;;8.80;74.41
78309;BME280;67566;42.022;21.356;2023-03-01T00:39:31;99026.31;;;8.80;73.55
78309;BME280;67566;42.022;21.356;2023-03-01T00:41:57;99028.25;;;8.74;74.15
78309;BME280;67566;42.022;21.356;2023-03-01T00:44:23;99019.19;;;8.75;74.09
78309;BME280;67566;42.022;21.356;2023-03-01T00:46:48;99021.06;;;8.75;73.87
78309;BME280;67566;42.022;21.356;2023-03-01T00:49:14;99010.72;;;8.73;73.36
78309;BME280;67566;42.022;21.356;2023-03-01T00:51:39;99012.06;;;8.71;73.16
78309;BME280;67566;42.022;21.356;2023-03-01T00:54:08;99003.03;;;8.72;72.73
78309;BME280;67566;42.022;21.356;2023-03-01T00:56:34;98996.94;;;8.71;72.32
78309;BME280;67566;42.022;21.356;2023-03-01T00:58:59;98994.53;;;8.69;72.19
78309;BME280;67566;42.022;21.356;2023-03-01T01:01:28;98990.63;;;8.62;72.43
78309;BME280;67566;42.022;21.356;2023-03-01T01:03:59;98980.81;;;8.62;72.41
78309;BME280;67566;42.022;21.356;2023-03-01T01:06:37;98975.81;;;8.56;72.90
78309;BME280;67566;42.022;21.356;2023-03-01T01:09:05;98976.19;;;8.39;73.50
78309;BME280;67566;42.022;21.356;2023-03-01T01:11:32;98975.69;;;8.31;73.28
78309;BME280;67566;42.022;21.356;2023-03-01T01:13:59;98975.47;;;8.23;74.13
78309;BME280;67566;42.022;21.356;2023-03-01T01:16:26;98966.28;;;8.10;74.24
78309;BME280;67566;42.022;21.356;2023-03-01T01:18:52;98967.09;;;8.05;74.76
78309;BME280;67566;42.022;21.356;2023-03-01T01:21:20;98964.69;;;8.09;74.51
78309;BME280;67566;42.022;21.356;2023-03-01T01:23:47;98962.00;;;8.14;74.56
78309;BME280;67566;42.022;21.356;2023-03-01T01:26:18;98958.81;;;8.17;74.81
78309;BME280;67566;42.022;21.356;2023-03-01T01:28:45;98963.34;;;8.11;74.31
78309;BME280;67566;42.022;21.356;2023-03-01T01:31:10;98966.06;;;8.01;75.02
78309;BME280;67566;42.022;21.356;2023-03-01T01:33:36;98956.13;;;7.78;75.50
78309;BME280;67566;42.022;21.356;2023-03-01T01:36:03;98952.94;;;7.75;76.26
78309;BME280;67566;42.022;21.356;2023-03-01T01:38:29;98951.41;;;7.64;76.64
78309;BME280;67566;42.022;21.356;2023-03-01T01:40:55;98953.78;;;7.66;76.38
78309;BME280;67566;42.022;21.356;2023-03-01T01:43:28;98958.25;;;7.70;76.56
78309;BME280;67566;42.022;21.356;2023-03-01T01:46:00;98947.38;;;7.72;76.71
78309;BME280;67566;42.022;21.356;2023-03-01T01:48:40;98948.69;;;7.80;76.82
78309;BME280;67566;42.022;21.356;2023-03-01T01:51:11;98947.09;;;7.79;76.71
78309;BME280;67566;42.022;21.356;2023-03-01T01:53:38;98941.00;;;7.78;76.03
78309;BME280;67566;42.022;21.356;2023-03-01T01:56:06;98944.97;;;7.75;76.75
78309;BME280;67566;42.022;21.356;2023-03-01T01:58:33;98946.31;;;7.78;76.38
78309;BME280;67566;42.022;21.356;2023-03-01T02:00:59;98951.84;;;7.82;74.94
78309;BME280;67566;42.022;21.356;2023-03-01T02:03:29;98948.41;;;7.81;74.71
78309;BME280;67566;42.022;21.356;2023-03-01T02:06:15;98957.13;;;7.87;74.16
78309;BME280;67566;42.022;21.356;2023-03-01T02:08:44;98951.00;;;7.91;74.66
78309;BME280;67566;42.022;21.356;2023-03-01T02:11:12;98958.66;;;7.98;74.95
78309;BME280;67566;42.022;21.356;2023-03-01T02:13:40;98945.38;;;8.03;74.64
78309;BME280;67566;42.022;21.356;2023-03-01T02:16:09;98949.84;;;8.08;74.07
78309;BME280;67566;42.022;21.356;2023-03-01T02:18:35;98948.22;;;8.12;74.32
78309;BME280;67566;42.022;21.356;2023-03-01T02:26:46;98945.50;;;8.22;74.28
78309;BME280;67566;42.022;21.356;2023-03-01T02:29:13;98946.28;;;8.23;74.98
78309;BME280;67566;42.022;21.356;2023-03-01T02:31:39;98941.88;;;8.13;76.53
78309;BME280;67566;42.022;21.356;2023-03-01T02:34:10;98938.50;;;8.02;77.45
78309;BME280;67566;42.022;21.356;2023-03-01T02:36:53;98941.94;;;8.03;78.28
78309;BME280;67566;42.022;21.356;2023-03-01T02:39:25;98945.59;;;8.07;78.05
78309;BME280;67566;42.022;21.356;2023-03-01T02:41:52;98940.03;;;8.08;78.47
78309;BME280;67566;42.022;21.356;2023-03-01T02:44:20;98950.66;;;8.03;78.33
78309;BME280;67566;42.022;21.356;2023-03-01T02:46:48;98944.91;;;7.91;79.53
78309;BME280;67566;42.022;21.356;2023-03-01T02:54:25;98945.59;;;7.62;80.51
78309;BME280;67566;42.022;21.356;2023-03-01T02:56:53;98945.34;;;7.59;81.41
78309;BME280;67566;42.022;21.356;2023-03-01T02:59:22;98947.50;;;7.46;81.02
78309;BME280;67566;42.022;21.356;2023-03-01T03:01:49;98940.31;;;7.57;81.86
78309;BME280;67566;42.022;21.356;2023-03-01T03:04:18;98930.72;;;7.66;80.58
78309;BME280;67566;42.022;21.356;2023-03-01T03:06:45;98937.84;;;7.76;80.48
78309;BME280;67566;42.022;21.356;2023-03-01T03:09:12;98938.34;;;7.83;80.49
78309;BME280;67566;42.022;21.356;2023-03-01T03:11:38;98943.34;;;7.90;79.41
78309;BME280;67566;42.022;21.356;2023-03-01T03:14:06;98936.94;;;7.96;79.54
78309;BME280;67566;42.022;21.356;2023-03-01T03:16:41;98930.81;;;8.01;78.73
78309;BME280;67566;42.022;21.356;2023-03-01T03:19:07;98929.97;;;8.05;79.12
78309;BME280;67566;42.022;21.356;2023-03-01T03:21:33;98927.03;;;8.07;78.45
78309;BME280;67566;42.022;21.356;2023-03-01T03:23:58;98925.72;;;8.09;79.01
78309;BME280;67566;42.022;21.356;2023-03-01T03:26:24;98924.63;;;8.10;78.88
78309;BME280;67566;42.022;21.356;2023-03-01T03:28:50;98922.53;;;8.12;78.64
78309;BME280;67566;42.022;21.356;2023-03-01T03:31:16;98927.53;;;8.14;78.63
78309;BME280;67566;42.022;21.356;2023-03-01T03:33:41;98923.03;;;8.15;77.85
78309;BME280;67566;42.022;21.356;2023-03-01T03:36:07;98925.69;;;8.15;78.50
78309;BME280;67566;42.022;21.356;2023-03-01T03:38:39;98925.41;;;8.16;77.67
78309;BME280;67566;42.022;21.356;2023-03-01T03:41:06;98912.94;;;8.17;78.24
78309;BME280;67566;42.022;21.356;2023-03-01T03:43:34;98928.84;;;8.17;78.04
78309;BME280;67566;42.022;21.356;2023-03-01T03:46:00;98918.75;;;8.19;78.18
78309;BME280;67566;42.022;21.356;2023-03-01T03:48:34;98915.81;;;8.20;78.15
78309;BME280;67566;42.022;21.356;2023-03-01T03:51:00;98919.53;;;8.19;77.91
78309;BME280;67566;42.022;21.356;2023-03-01T03:53:27;98921.41;;;8.19;77.90
78309;BME280;67566;42.022;21.356;2023-03-01T03:55:53;98920.66;;;8.13;77.33
78309;BME280;67566;42.022;21.356;2023-03-01T03:58:22;98925.03;;;7.93;77.94
78309;BME280;67566;42.022;21.356;2023-03-01T04:00:50;98926.91;;;7.83;78.27
78309;BME280;67566;42.022;21.356;2023-03-01T04:03:18;98933.03;;;7.83;78.90
78309;BME280;67566;42.022;21.356;2023-03-01T04:05:44;98926.13;;;7.82;78.87
78309;BME280;67566;42.022;21.356;2023-03-01T04:08:10;98925.94;;;7.68;79.83
78309;BME280;67566;42.022;21.356;2023-03-01T04:13:04;98930.03;;;7.45;81.21
78309;BME280;67566;42.022;21.356;2023-03-01T04:15:30;98943.53;;;7.44;82.42
78309;BME280;67566;42.022;21.356;2023-03-01T04:17:56;98941.16;;;7.42;82.69
78309;BME280;67566;42.022;21.356;2023-03-01T04:20:24;98943.28;;;7.40;81.47
78309;BME280;67566;42.022;21.356;2023-03-01T04:22:58;98941.44;;;7.35;80.74
78309;BME280;67566;42.022;21.356;2023-03-01T04:25:24;98950.44;;;7.40;80.31
78309;BME280;67566;42.022;21.356;2023-03-01T04:27:49;98956.06;;;7.23;80.24
78309;BME280;67566;42.022;21.356;2023-03-01T04:30:15;98957.94;;;7.17;80.62
78309;BME280;67566;42.022;21.356;2023-03-01T04:32:41;98963.50;;;7.15;80.76
78309;BME280;67566;42.022;21.356;2023-03-01T04:35:06;98963.72;;;7.24;80.41
78309;BME280;67566;42.022;21.356;2023-03-01T04:37:32;98960.28;;;7.34;79.56
78309;BME280;67566;42.022;21.356;2023-03-01T04:39:58;98961.03;;;7.40;79.74
78309;BME280;67566;42.022;21.356;2023-03-01T04:42:23;98963.69;;;7.45;78.66
78309;BME280;67566;42.022;21.356;2023-03-01T04:44:48;98964.44;;;7.50;78.93
78309;BME280;67566;42.022;21.356;2023-03-01T04:47:16;98965.47;;;7.54;78.54
78309;BME280;67566;42.022;21.356;2023-03-01T04:49:42;98964.69;;;7.59;78.45
78309;BME280;67566;42.022;21.356;2023-03-01T04:52:08;98962.03;;;7.59;78.19
78309;BME280;67566;42.022;21.356;2023-03-01T04:54:35;98963.06;;;7.63;78.51
78309;BME280;67566;42.022;21.356;2023-03-01T04:57:01;98970.47;;;7.66;77.49
78309;BME280;67566;42.022;21.356;2023-03-01T04:59:28;98969.94;;;7.69;78.07
78309;BME280;67566;42.022;21.356;2023-03-01T05:01:55;98968.84;;;7.70;77.96
78309;BME280;67566;42.022;21.356;2023-03-01T05:04:25;98973.63;;;7.68;78.74
78309;BME280;67566;42.022;21.356;2023-03-01T05:06:51;98975.00;;;7.61;78.54
78309;BME280;67566;42.022;21.356;2023-03-01T05:09:18;98991.47;;;7.47;79.22
78309;BME280;67566;42.022;21.356;2023-03-01T05:11:44;98983.56;;;7.37;78.60
78309;BME280;67566;42.022;21.356;2023-03-01T05:14:10;98989.69;;;7.27;79.44
78309;BME280;67566;42.022;21.356;2023-03-01T05:16:36;98983.56;;;7.27;79.80
78309;BME280;67566;42.022;21.356;2023-03-01T05:19:03;98986.78;;;7.18;78.95
78309;BME280;67566;42.022;21.356;2023-03-01T05:21:39;98995.00;;;7.12;78.74
78309;BME280;67566;42.022;21.356;2023-03-01T05:24:24;98982.56;;;7.07;79.11
78309;BME280;67566;42.022;21.356;2023-03-01T05:26:50;98982.81;;;7.06;78.73
78309;BME280;67566;42.022;21.356;2023-03-01T05:29:23;98992.09;;;7.08;79.32
78309;BME280;67566;42.022;21.356;2023-03-01T05:31:56;98988.63;;;7.18;78.98
78309;BME280;67566;42.022;21.356;2023-03-01T05:34:27;98992.34;;;7.12;78.49
78309;BME280;67566;42.022;21.356;2023-03-01T05:36:53;98989.19;;;7.15;78.41
78309;BME280;67566;42.022;21.356;2023-03-01T05:39:23;98989.69;;;7.17;79.14
78309;BME280;67566;42.022;21.356;2023-03-01T05:41:58;98984.16;;;7.18;78.70
78309;BME280;67566;42.022;21.356;2023-03-01T05:44:24;98975.09;;;7.25;78.58
78309;BME280;67566;42.022;21.356;2023-03-01T05:46:50;98984.13;;;7.24;78.34
78309;BME280;67566;42.022;21.356;2023-03-01T05:49:16;98988.09;;;7.21;78.78
78309;BME280;67566;42.022;21.356;2023-03-01T05:51:45;98984.13;;;7.29;78.17
78309;BME280;67566;42.022;21.356;2023-03-01T05:54:13;98988.59;;;7.28;78.13
78309;BME280;67566;42.022;21.356;2023-03-01T05:56:39;98987.28;;;7.31;78.19
78309;BME280;67566;42.022;21.356;2023-03-01T05:59:05;98989.16;;;7.25;79.34
78309;BME280;67566;42.022;21.356;2023-03-01T06:01:35;98998.69;;;7.26;79.92
78309;BME280;67566;42.022;21.356;2023-03-01T06:04:01;98993.63;;;7.35;78.86
78309;BME280;67566;42.022;21.356;2023-03-01T06:06:26;98990.69;;;7.42;78.90
78309;BME280;67566;42.022;21.356;2023-03-01T06:08:53;98995.19;;;7.46;78.76
78309;BME280;67566;42.022;21.356;2023-03-01T06:11:19;98990.69;;;7.52;78.47
78309;BME280;67566;42.022;21.356;2023-03-01T06:13:45;98995.44;;;7.55;78.17
78309;BME280;67566;42.022;21.356;2023-03-01T06:16:12;98991.72;;;7.56;78.48
78309;BME280;67566;42.022;21.356;2023-03-01T06:18:38;98998.59;;;7.57;78.45
78309;BME280;67566;42.022;21.356;2023-03-01T06:21:05;98996.75;;;7.57;78.39
78309;BME280;67566;42.022;21.356;2023-03-01T06:23:31;99004.16;;;7.55;78.44
78309;BME280;67566;42.022;21.356;2023-03-01T06:25:57;99003.38;;;7.55;78.23
78309;BME280;67566;42.022;21.356;2023-03-01T06:28:22;99005.25;;;7.39;79.76
78309;BME280;67566;42.022;21.356;2023-03-01T06:30:49;99005.56;;;7.32;80.81
78309;BME280;67566;42.022;21.356;2023-03-01T06:33:14;99002.66;;;7.29;80.45
78309;BME280;67566;42.022;21.356;2023-03-01T06:35:40;99005.81;;;7.36;80.37
78309;BME280;67566;42.022;21.356;2023-03-01T06:38:06;99001.84;;;7.33;80.40
78309;BME280;67566;42.022;21.356;2023-03-01T06:40:31;99005.06;;;7.25;81.35
78309;BME280;67566;42.022;21.356;2023-03-01T06:42:58;99008.50;;;7.21;81.57
78309;BME280;67566;42.022;21.356;2023-03-01T06:45:24;99010.88;;;7.32;81.07
78309;BME280;67566;42.022;21.356;2023-03-01T06:47:49;99010.84;;;7.43;81.02
78309;BME280;67566;42.022;21.356;2023-03-01T06:50:16;99014.53;;;7.47;80.40
78309;BME280;67566;42.022;21.356;2023-03-01T06:52:42;99014.53;;;7.52;80.39
78309;BME280;67566;42.022;21.356;2023-03-01T06:55:10;99015.59;;;7.41;79.27
78309;BME280;67566;42.022;21.356;2023-03-01T06:57:36;99023.28;;;7.42;79.81
78309;BME280;67566;42.022;21.356;2023-03-01T07:00:05;99021.69;;;7.46;79.96
78309;BME280;67566;42.022;21.356;2023-03-01T07:02:31;99020.06;;;7.55;79.34
78309;BME280;67566;42.022;21.356;2023-03-01T07:04:56;99027.22;;;7.60;79.47
78309;BME280;67566;42.022;21.356;2023-03-01T07:07:22;99028.78;;;7.61;79.13
78309;BME280;67566;42.022;21.356;2023-03-01T07:09:48;99019.78;;;7.62;78.86
78309;BME280;67566;42.022;21.356;2023-03-01T07:12:14;99020.53;;;7.73;78.91
78309;BME280;67566;42.022;21.356;2023-03-01T07:14:39;99017.03;;;7.83;78.25
78309;BME280;67566;42.022;21.356;2023-03-01T07:17:05;99013.56;;;7.92;78.71
78309;BME280;67566;42.022;21.356;2023-03-01T07:19:31;99024.41;;;7.96;77.89
78309;BME280;67566;42.022;21.356;2023-03-01T07:21:56;99022.56;;;7.91;77.97
78309;BME280;67566;42.022;21.356;2023-03-01T07:24:22;99014.63;;;7.91;78.51
78309;BME280;67566;42.022;21.356;2023-03-01T07:26:51;99016.19;;;8.03;77.69
78309;BME280;67566;42.022;21.356;2023-03-01T07:29:17;99019.56;;;8.13;77.34
78309;BME280;67566;42.022;21.356;2023-03-01T07:31:46;99010.56;;;8.15;77.96
78309;BME280;67566;42.022;21.356;2023-03-01T07:34:11;99015.34;;;8.12;77.64
78309;BME280;67566;42.022;21.356;2023-03-01T07:36:37;99015.56;;;8.21;77.23
78309;BME280;67566;42.022;21.356;2023-03-01T07:39:04;99019.72;;;8.32;76.82
78309;BME280;67566;42.022;21.356;2023-03-01T07:41:30;99024.72;;;8.39;77.36
78309;BME280;67566;42.022;21.356;2023-03-01T07:43:55;99023.66;;;8.45;76.62
78309;BME280;67566;42.022;21.356;2023-03-01T07:46:21;99022.81;;;8.50;76.04
78309;BME280;67566;42.022;21.356;2023-03-01T07:48:46;99019.09;;;8.56;75.94
78309;BME280;67566;42.022;21.356;2023-03-01T07:51:12;99024.88;;;8.63;76.68
78309;BME280;67566;42.022;21.356;2023-03-01T07:53:38;99020.31;;;8.69;75.92
78309;BME280;67566;42.022;21.356;2023-03-01T07:56:05;99016.53;;;8.75;75.74
78309;BME280;67566;42.022;21.356;2023-03-01T07:58:34;99012.50;;;8.83;76.02
78309;BME280;67566;42.022;21.356;2023-03-01T08:01:06;99012.47;;;8.88;74.99
78309;BME280;67566;42.022;21.356;2023-03-01T08:03:33;99018.19;;;8.66;75.05
78309;BME280;67566;42.022;21.356;2023-03-01T08:06:00;99014.91;;;8.40;75.18
78309;BME280;67566;42.022;21.356;2023-03-01T08:08:26;99019.00;;;8.22;76.75
78309;BME280;67566;42.022;21.356;2023-03-01T08:10:52;99011.06;;;8.17;76.74
78309;BME280;67566;42.022;21.356;2023-03-01T08:13:17;99017.06;;;8.32;76.29
78309;BME280;67566;42.022;21.356;2023-03-01T08:15:48;99017.81;;;8.38;75.93
78309;BME280;67566;42.022;21.356;2023-03-01T08:18:14;99018.56;;;8.04;77.08
78309;BME280;67566;42.022;21.356;2023-03-01T08:20:40;99011.41;;;8.00;76.78
78309;BME280;67566;42.022;21.356;2023-03-01T08:23:05;99013.78;;;8.06;77.49
78309;BME280;67566;42.022;21.356;2023-03-01T08:25:31;99014.84;;;8.00;77.33
78309;BME280;67566;42.022;21.356;2023-03-01T08:27:56;99017.47;;;8.05;78.05
78309;BME280;67566;42.022;21.356;2023-03-01T08:30:21;99012.56;;;8.33;77.86
78309;BME280;67566;42.022;21.356;2023-03-01T08:32:49;99012.75;;;8.47;76.85
78309;BME280;67566;42.022;21.356;2023-03-01T08:35:15;99015.09;;;8.54;76.48
78309;BME280;67566;42.022;21.356;2023-03-01T08:37:40;99015.44;;;8.81;76.60
78309;BME280;67566;42.022;21.356;2023-03-01T08:40:06;99005.03;;;8.85;75.47
78309;BME280;67566;42.022;21.356;2023-03-01T08:42:35;99015.53;;;8.66;76.95
78309;BME280;67566;42.022;21.356;2023-03-01T08:45:01;99003.16;;;8.56;77.35
78309;BME280;67566;42.022;21.356;2023-03-01T08:47:26;99008.53;;;8.41;78.58
78309;BME280;67566;42.022;21.356;2023-03-01T08:49:51;99004.88;;;8.31;78.38
78309;BME280;67566;42.022;21.356;2023-03-01T08:52:19;99004.69;;;8.18;79.42
78309;BME280;67566;42.022;21.356;2023-03-01T08:54:44;99004.16;;;8.16;79.21
78309;BME280;67566;42.022;21.356;2023-03-01T08:57:10;99003.63;;;8.19;79.92
78309;BME280;67566;42.022;21.356;2023-03-01T08:59:35;99008.94;;;8.19;79.49
78309;BME280;67566;42.022;21.356;2023-03-01T09:02:03;99007.16;;;8.54;78.97
78309;BME280;67566;42.022;21.356;2023-03-01T09:04:29;99005.81;;;8.56;78.02
78309;BME280;67566;42.022;21.356;2023-03-01T09:06:55;99005.16;;;8.69;77.91
78309;BME280;67566;42.022;21.356;2023-03-01T09:09:20;99003.72;;;8.82;77.92
78309;BME280;67566;42.022;21.356;2023-03-01T09:11:46;99000.84;;;8.79;77.65
78309;BME280;67566;42.022;21.356;2023-03-01T09:14:12;99000.06;;;8.78;77.40
78309;BME280;67566;42.022;21.356;2023-03-01T09:16:38;99010.50;;;8.99;77.16
78309;BME280;67566;42.022;21.356;2023-03-01T09:19:05;99009.00;;;9.17;76.59
78309;BME280;67566;42.022;21.356;2023-03-01T09:21:31;99005.13;;;9.33;75.73
78309;BME280;67566;42.022;21.356;2023-03-01T09:23:57;99005.97;;;9.29;75.90
78309;BME280;67566;42.022;21.356;2023-03-01T09:26:24;99004.22;;;9.43;76.10
78309;BME280;67566;42.022;21.356;2023-03-01T09:28:52;99001.78;;;9.47;75.29
78309;BME280;67566;42.022;21.356;2023-03-01T09:31:22;98988.38;;;9.57;74.68
78309;BME280;67566;42.022;21.356;2023-03-01T09:33:53;98987.44;;;9.72;75.07
78309;BME280;67566;42.022;21.356;2023-03-01T09:36:22;98990.69;;;9.88;74.00
78309;BME280;67566;42.022;21.356;2023-03-01T09:38:49;98992.56;;;10.06;74.06
78309;BME280;67566;42.022;21.356;2023-03-01T09:44:10;98976.88;;;10.62;72.02
78309;BME280;67566;42.022;21.356;2023-03-01T09:46:43;98984.88;;;10.62;71.28
78309;BME280;67566;42.022;21.356;2023-03-01T09:49:36;98978.56;;;10.38;72.13
78309;BME280;67566;42.022;21.356;2023-03-01T09:52:23;98966.44;;;10.27;71.38
78309;BME280;67566;42.022;21.356;2023-03-01T09:54:54;98965.44;;;10.23;72.12
78309;BME280;67566;42.022;21.356;2023-03-01T10:02:45;98971.72;;;10.51;71.56
78309;BME280;67566;42.022;21.356;2023-03-01T10:05:22;98968.19;;;10.56;70.86
78309;BME280;67566;42.022;21.356;2023-03-01T10:08:21;98964.63;;;10.61;70.44
78309;BME280;67566;42.022;21.356;2023-03-01T10:10:43;98957.28;;;10.71;69.98
78309;BME280;67566;42.022;21.356;2023-03-01T10:16:15;98948.34;;;10.95;69.68
78309;BME280;67566;42.022;21.356;2023-03-01T10:18:43;98952.91;;;11.08;68.97
78309;BME280;67566;42.022;21.356;2023-03-01T10:21:17;98951.03;;;11.23;69.37
78309;BME280;67566;42.022;21.356;2023-03-01T10:23:44;98948.19;;;11.33;68.79
78309;BME280;67566;42.022;21.356;2023-03-01T10:29:14;98951.84;;;11.37;67.21
78309;BME280;67566;42.022;21.356;2023-03-01T10:31:48;98957.16;;;11.37;67.98
78309;BME280;67566;42.022;21.356;2023-03-01T10:34:19;98961.50;;;11.33;67.08
78309;BME280;67566;42.022;21.356;2023-03-01T10:36:50;98960.22;;;11.30;67.50
78309;BME280;67566;42.022;21.356;2023-03-01T10:39:22;98955.88;;;11.21;67.74
78309;BME280;67566;42.022;21.356;2023-03-01T10:44:43;98954.88;;;11.30;67.98
78309;BME280;67566;42.022;21.356;2023-03-01T10:47:26;98957.25;;;11.32;68.60
78309;BME280;67566;42.022;21.356;2023-03-01T10:50:04;98948.09;;;11.38;68.14
78309;BME280;67566;42.022;21.356;2023-03-01T10:52:36;98946.00;;;11.49;67.64
78309;BME280;67566;42.022;21.356;2023-03-01T10:55:17;98943.44;;;11.58;67.58
78309;BME280;67566;42.022;21.356;2023-03-01T10:57:47;98943.03;;;11.64;68.12
78309;BME280;67566;42.022;21.356;2023-03-01T11:02:38;98930.09;;;11.58;66.91
78309;BME280;67566;42.022;21.356;2023-03-01T11:05:24;98929.22;;;11.62;67.25
78309;BME280;67566;42.022;21.356;2023-03-01T11:07:54;98933.63;;;11.67;66.99
78309;BME280;67566;42.022;21.356;2023-03-01T11:10:28;98935.41;;;11.71;66.58
78309;BME280;67566;42.022;21.356;2023-03-01T11:13:15;98923.66;;;11.73;66.39
78309;BME280;67566;42.022;21.356;2023-03-01T11:15:41;98929.41;;;11.52;66.88
78309;BME280;67566;42.022;21.356;2023-03-01T11:18:21;98920.81;;;11.55;66.57
78309;BME280;67566;42.022;21.356;2023-03-01T11:20:48;98919.91;;;11.60;66.80
78309;BME280;67566;42.022;21.356;2023-03-01T11:23:16;98915.06;;;11.62;66.66
78309;BME280;67566;42.022;21.356;2023-03-01T11:25:55;98908.84;;;11.66;66.42
78309;BME280;67566;42.022;21.356;2023-03-01T11:28:22;98913.03;;;11.59;66.22
78309;BME280;67566;42.022;21.356;2023-03-01T11:31:00;98895.44;;;11.58;67.12
78309;BME280;67566;42.022;21.356;2023-03-01T11:33:56;98892.44;;;11.73;67.12
78309;BME280;67566;42.022;21.356;2023-03-01T11:36:28;98894.06;;;11.83;66.50
78309;BME280;67566;42.022;21.356;2023-03-01T11:38:56;98890.50;;;11.87;66.61
78309;BME280;67566;42.022;21.356;2023-03-01T11:41:30;98883.41;;;11.83;66.55
78309;BME280;67566;42.022;21.356;2023-03-01T11:52:28;98878.69;;;11.29;67.55
78309;BME280;67566;42.022;21.356;2023-03-01T11:55:36;98881.16;;;11.26;68.24
78309;BME280;67566;42.022;21.356;2023-03-01T12:07:39;98875.94;;;11.07;68.28
78309;BME280;67566;42.022;21.356;2023-03-01T12:16:26;98872.56;;;11.43;67.43
78309;BME280;67566;42.022;21.356;2023-03-01T12:25:25;98872.84;;;11.41;66.75
78309;BME280;67566;42.022;21.356;2023-03-01T12:28:04;98859.34;;;11.38;67.74
78309;BME280;67566;42.022;21.356;2023-03-01T12:33:39;98853.28;;;11.46;67.40
78309;BME280;67566;42.022;21.356;2023-03-01T12:39:32;98846.94;;;11.56;67.07
78309;BME280;67566;42.022;21.356;2023-03-01T12:50:57;98840.94;;;11.86;66.45
78309;BME280;67566;42.022;21.356;2023-03-01T12:55:55;98842.91;;;11.81;66.58
78309;BME280;67566;42.022;21.356;2023-03-01T13:01:52;98837.47;;;12.08;65.67
78309;BME280;67566;42.022;21.356;2023-03-01T13:11:06;98844.16;;;11.97;65.65
78309;BME280;67566;42.022;21.356;2023-03-01T13:13:47;98834.69;;;11.91;65.75
78309;BME280;67566;42.022;21.356;2023-03-01T13:16:57;98826.31;;;11.84;65.84
78309;BME280;67566;42.022;21.356;2023-03-01T13:19:31;98824.41;;;11.84;65.98
78309;BME280;67566;42.022;21.356;2023-03-01T13:22:37;98822.25;;;11.86;66.11
78309;BME280;67566;42.022;21.356;2023-03-01T13:25:22;98828.94;;;11.98;65.12
78309;BME280;67566;42.022;21.356;2023-03-01T13:27:48;98818.63;;;12.05;64.85
78309;BME280;67566;42.022;21.356;2023-03-01T13:35:58;98815.28;;;12.22;64.48
78309;BME280;67566;42.022;21.356;2023-03-01T13:38:48;98808.28;;;12.35;63.92
78309;BME280;67566;42.022;21.356;2023-03-01T13:44:30;98803.59;;;12.80;63.47
78309;BME280;67566;42.022;21.356;2023-03-01T13:47:17;98792.44;;;12.87;63.42
78309;BME280;67566;42.022;21.356;2023-03-01T13:49:45;98794.06;;;12.17;63.66
78309;BME280;67566;42.022;21.356;2023-03-01T13:58:23;98792.13;;;12.40;64.00
78309;BME280;67566;42.022;21.356;2023-03-01T14:01:01;98790.28;;;11.73;64.99
78309;BME280;67566;42.022;21.356;2023-03-01T14:03:33;98782.59;;;11.71;65.79
78309;BME280;67566;42.022;21.356;2023-03-01T14:06:12;98782.41;;;11.67;66.42
78309;BME280;67566;42.022;21.356;2023-03-01T14:09:04;98795.56;;;11.64;66.19
78309;BME280;67566;42.022;21.356;2023-03-01T14:15:00;98794.75;;;11.27;67.12
78309;BME280;67566;42.022;21.356;2023-03-01T14:20:46;98792.50;;;11.34;67.26
78309;BME280;67566;42.022;21.356;2023-03-01T14:23:23;98797.03;;;11.33;66.81
78309;BME280;67566;42.022;21.356;2023-03-01T14:26:00;98796.44;;;11.37;67.51
78309;BME280;67566;42.022;21.356;2023-03-01T14:28:53;98797.69;;;11.39;67.53
78309;BME280;67566;42.022;21.356;2023-03-01T14:31:36;98793.16;;;11.40;67.21
78309;BME280;67566;42.022;21.356;2023-03-01T14:34:28;98801.47;;;11.38;67.55
78309;BME280;67566;42.022;21.356;2023-03-01T14:36:56;98796.94;;;11.25;67.65
78309;BME280;67566;42.022;21.356;2023-03-01T14:40:24;98798.63;;;11.21;67.73
78309;BME280;67566;42.022;21.356;2023-03-01T14:42:58;98789.78;;;11.11;68.46
78309;BME280;67566;42.022;21.356;2023-03-01T14:45:25;98789.00;;;10.97;69.34
78309;BME280;67566;42.022;21.356;2023-03-01T14:47:55;98786.34;;;10.83;69.35
78309;BME280;67566;42.022;21.356;2023-03-01T14:50:40;98780.22;;;10.83;69.35
78309;BME280;67566;42.022;21.356;2023-03-01T14:53:29;98776.59;;;10.79;69.54
78309;BME280;67566;42.022;21.356;2023-03-01T14:56:01;98781.53;;;10.71;69.74
78309;BME280;67566;42.022;21.356;2023-03-01T14:58:32;98774.91;;;10.55;71.26
78309;BME280;67566;42.022;21.356;2023-03-01T15:01:01;98768.78;;;10.54;71.33
78309;BME280;67566;42.022;21.356;2023-03-01T15:03:41;98765.53;;;10.44;71.38